Time;durP1;ratioP1;P1;durP2;ratioP2;P2;SDS_P1;SDS_P2;PMS_P1;PMS_P2;Temp;Humidity;BMP_temperature;BMP_pressure;BME280_temperature;BME280_humidity;BME280_pressure;Samples;Min_cycle;Max_cycle;Signal;HPM_P1;HPM_P2
2021/11/29 00:02:30;;;;;;;5.87;2.67;;;;;;;2.14;100.00;100296.31;5214515;28;20021;-70
2021/11/29 00:05:01;;;;;;;5.50;2.08;;;;;;;2.13;100.00;100299.81;5213473;28;20075;-70
2021/11/29 00:07:32;;;;;;;6.85;2.13;;;;;;;2.05;100.00;100297.69;5212531;28;20337;-70
2021/11/29 00:10:05;;;;;;;6.63;2.15;;;;;;;2.11;100.00;100312.81;5214441;28;20032;-70
2021/11/29 00:12:37;;;;;;;4.03;2.15;;;;;;;2.12;100.00;100304.16;5214502;28;20022;-70
2021/11/29 00:15:10;;;;;;;4.72;1.80;;;;;;;2.07;100.00;100310.50;5213390;28;20084;-70
2021/11/29 00:17:42;;;;;;;6.47;1.80;;;;;;;2.09;100.00;100322.41;5212839;28;20360;-70
2021/11/29 00:20:14;;;;;;;7.07;2.88;;;;;;;2.04;100.00;100318.41;5214524;28;20041;-70
2021/11/29 00:22:47;;;;;;;6.18;2.17;;;;;;;2.06;100.00;100321.75;5212673;28;20056;-70
2021/11/29 00:25:18;;;;;;;7.32;1.98;;;;;;;2.00;100.00;100317.75;5213858;28;20026;-70
2021/11/29 00:27:50;;;;;;;4.57;2.13;;;;;;;1.97;100.00;100320.56;5212220;28;20394;-70
2021/11/29 00:30:21;;;;;;;5.95;1.85;;;;;;;1.95;100.00;100319.78;5212589;28;20033;-70
2021/11/29 00:32:53;;;;;;;4.40;1.70;;;;;;;1.96;100.00;100324.03;5214019;28;20026;-70
2021/11/29 00:35:24;;;;;;;4.45;1.70;;;;;;;1.94;100.00;100320.72;5214176;28;20037;-70
2021/11/29 00:37:55;;;;;;;3.97;1.50;;;;;;;1.99;100.00;100331.59;5213719;28;20033;-70
2021/11/29 00:40:27;;;;;;;3.10;1.60;;;;;;;1.94;100.00;100326.72;5213530;28;20025;-70
2021/11/29 00:42:58;;;;;;;4.03;1.45;;;;;;;1.89;100.00;100323.53;5213373;28;20041;-70
2021/11/29 00:45:30;;;;;;;5.20;1.60;;;;;;;1.90;100.00;100324.41;5214013;28;20466;-70
2021/11/29 00:48:01;;;;;;;4.15;1.52;;;;;;;1.86;100.00;100325.50;5213710;28;20684;-70
2021/11/29 00:50:37;;;;;;;5.18;1.90;;;;;;;1.89;100.00;100330.47;5212448;28;20026;-70
2021/11/29 00:53:11;;;;;;;2.92;1.23;;;;;;;1.88;100.00;100333.97;5212991;28;20022;-70
2021/11/29 00:55:42;;;;;;;4.28;1.50;;;;;;;1.85;100.00;100339.31;5213753;28;20483;-70
2021/11/29 00:58:14;;;;;;;3.35;1.60;;;;;;;1.83;100.00;100346.31;5212305;28;20152;-70
2021/11/29 01:00:45;;;;;;;4.45;1.50;;;;;;;1.78;100.00;100330.25;5212119;28;20033;-70
2021/11/29 01:03:17;;;;;;;7.72;1.83;;;;;;;1.80;100.00;100339.56;5212582;28;20026;-70
2021/11/29 01:05:48;;;;;;;12.25;1.40;;;;;;;1.76;100.00;100337.25;5213311;28;20038;-70
2021/11/29 01:08:19;;;;;;;3.05;1.27;;;;;;;1.76;100.00;100339.84;5213458;28;20101;-70
2021/11/29 01:10:51;;;;;;;3.08;1.85;;;;;;;1.77;100.00;100342.31;5212024;28;20026;-70
2021/11/29 01:13:22;;;;;;;6.05;2.00;;;;;;;1.72;100.00;100346.09;5213100;28;20387;-70
2021/11/29 01:15:53;;;;;;;5.35;1.45;;;;;;;1.75;100.00;100351.09;5211882;28;20489;-70
2021/11/29 01:18:25;;;;;;;5.40;1.55;;;;;;;1.68;100.00;100350.59;5212744;28;20471;-70
2021/11/29 01:20:56;;;;;;;3.72;1.23;;;;;;;1.73;100.00;100363.25;5212929;28;20079;-70
2021/11/29 01:23:28;;;;;;;7.13;1.50;;;;;;;1.69;100.00;100362.59;5212491;28;20053;-70
2021/11/29 01:25:59;;;;;;;4.72;1.40;;;;;;;1.67;100.00;100367.84;5212168;28;20467;-70
2021/11/29 01:28:31;;;;;;;4.88;1.48;;;;;;;1.67;100.00;100365.25;5212732;28;20479;-70
2021/11/29 01:31:03;;;;;;;2.90;1.20;;;;;;;1.67;100.00;100364.44;5211473;28;20049;-70
2021/11/29 01:33:34;;;;;;;5.30;1.70;;;;;;;1.65;100.00;100377.41;5212739;28;20030;-70
2021/11/29 01:36:05;;;;;;;6.80;1.60;;;;;;;1.67;100.00;100377.34;5212022;28;20479;-70
2021/11/29 01:38:37;;;;;;;3.38;1.52;;;;;;;1.67;100.00;100385.09;5212472;28;20041;-70
2021/11/29 01:41:08;;;;;;;3.40;1.60;;;;;;;1.64;100.00;100382.69;5212359;28;20021;-70
2021/11/29 01:43:39;;;;;;;5.03;1.70;;;;;;;1.67;100.00;100392.84;5212277;28;20386;-70
2021/11/29 01:46:11;;;;;;;5.32;1.35;;;;;;;1.69;100.00;100393.56;5212612;28;20046;-70
2021/11/29 01:48:43;;;;;;;3.30;1.40;;;;;;;1.64;100.00;100386.09;5213032;28;20060;-70
2021/11/29 01:51:14;;;;;;;4.07;1.60;;;;;;;1.67;100.00;100401.41;5211860;28;20495;-70
2021/11/29 01:53:46;;;;;;;6.63;2.30;;;;;;;1.68;100.00;100400.50;5212395;28;20037;-70
2021/11/29 01:56:17;;;;;;;4.38;1.20;;;;;;;1.68;100.00;100402.25;5212532;28;20472;-70
2021/11/29 01:58:49;;;;;;;4.45;1.63;;;;;;;1.68;100.00;100390.16;5211922;28;20029;-70
2021/11/29 02:01:22;;;;;;;5.78;1.95;;;;;;;1.68;100.00;100397.91;5211461;28;20056;-70
2021/11/29 02:03:57;;;;;;;2.97;1.60;;;;;;;1.70;100.00;100395.22;5212371;28;20026;-70
2021/11/29 02:06:31;;;;;;;4.93;1.98;;;;;;;1.67;100.00;100396.25;5212999;28;20030;-70
2021/11/29 02:09:04;;;;;;;5.45;1.60;;;;;;;1.61;100.00;100388.00;5213537;28;20029;-70
2021/11/29 02:11:37;;;;;;;3.88;1.73;;;;;;;1.62;100.00;100381.91;5215788;28;20117;-70
2021/11/29 02:14:08;;;;;;;3.30;1.45;;;;;;;1.65;100.00;100389.50;5216727;28;20060;-70
2021/11/29 02:16:40;;;;;;;8.52;2.00;;;;;;;1.72;100.00;100387.41;5216422;28;20022;-70
2021/11/29 02:19:11;;;;;;;5.68;1.67;;;;;;;1.77;100.00;100387.97;5215841;28;20026;-70
2021/11/29 02:21:43;;;;;;;3.95;1.60;;;;;;;1.77;100.00;100391.41;5215607;28;20595;-70
2021/11/29 02:24:16;;;;;;;5.15;1.65;;;;;;;1.77;100.00;100390.56;5215765;28;20050;-70
2021/11/29 02:26:47;;;;;;;2.45;1.27;;;;;;;1.85;100.00;100398.72;5215684;28;20038;-70
2021/11/29 02:29:19;;;;;;;3.17;1.98;;;;;;;1.85;100.00;100388.38;5216163;28;20467;-70
2021/11/29 02:31:50;;;;;;;4.85;1.50;;;;;;;1.84;100.00;100386.72;5216072;28;20084;-70
2021/11/29 02:34:25;;;;;;;4.13;1.70;;;;;;;1.88;100.00;100393.38;5214516;28;20029;-70
2021/11/29 02:36:59;;;;;;;5.88;1.55;;;;;;;1.87;100.00;100383.97;5215230;28;20379;-70
2021/11/29 02:39:34;;;;;;;4.72;1.80;;;;;;;1.83;100.00;100390.25;5216096;28;20034;-70
2021/11/29 02:42:08;;;;;;;4.75;1.52;;;;;;;1.81;100.00;100387.72;5215827;28;20041;-70
2021/11/29 02:44:41;;;;;;;3.65;1.58;;;;;;;1.79;100.00;100381.81;5214966;28;20292;-70
2021/11/29 02:47:12;;;;;;;4.93;1.47;;;;;;;1.81;100.00;100387.72;5216521;28;20033;-70
2021/11/29 02:49:44;;;;;;;3.17;1.30;;;;;;;1.75;100.00;100392.41;5216033;28;20386;-70
2021/11/29 02:52:17;;;;;;;2.95;1.50;;;;;;;1.81;100.00;100398.06;5216050;28;20026;-70
2021/11/29 02:54:49;;;;;;;3.33;1.55;;;;;;;1.76;100.00;100410.41;5214793;28;20030;-70
2021/11/29 02:57:22;;;;;;;3.67;1.65;;;;;;;1.79;100.00;100406.81;5215764;28;20076;-70
2021/11/29 02:59:53;;;;;;;3.83;1.50;;;;;;;1.79;100.00;100409.41;5214599;28;20030;-70
2021/11/29 03:02:26;;;;;;;4.63;1.50;;;;;;;1.86;100.00;100427.06;5212531;28;20037;-70
2021/11/29 03:05:03;;;;;;;5.97;1.75;;;;;;;1.92;100.00;100411.19;5214643;28;20112;-70
2021/11/29 03:07:34;;;;;;;3.83;1.73;;;;;;;1.84;100.00;100415.97;5213447;28;20020;-70
2021/11/29 03:10:06;;;;;;;3.50;2.00;;;;;;;1.83;100.00;100411.72;5214662;28;20383;-70
2021/11/29 03:12:37;;;;;;;2.97;1.35;;;;;;;1.88;100.00;100419.22;5215390;28;20034;-71
2021/11/29 03:15:09;;;;;;;3.17;1.40;;;;;;;1.88;100.00;100414.88;5215209;28;20552;-70
2021/11/29 03:17:40;;;;;;;5.20;1.88;;;;;;;1.88;100.00;100425.22;5213896;28;20119;-70
2021/11/29 03:20:12;;;;;;;6.53;1.80;;;;;;;1.89;100.00;100415.69;5215048;28;20487;-70
2021/11/29 03:22:44;;;;;;;3.80;1.70;;;;;;;1.86;100.00;100408.97;5215547;28;20388;-70
2021/11/29 03:25:16;;;;;;;3.75;1.48;;;;;;;1.84;100.00;100413.38;5214606;28;20040;-70
2021/11/29 03:27:47;;;;;;;8.50;2.15;;;;;;;1.83;100.00;100416.06;5214898;28;20531;-70
2021/11/29 03:30:18;;;;;;;5.18;1.33;;;;;;;1.87;100.00;100407.22;5213664;28;20022;-70
2021/11/29 03:32:50;;;;;;;3.30;1.52;;;;;;;1.86;100.00;100406.41;5215321;28;20045;-70
2021/11/29 03:35:21;;;;;;;3.78;1.50;;;;;;;1.94;100.00;100416.31;5215626;28;20034;-70
2021/11/29 03:37:52;;;;;;;6.13;1.38;;;;;;;1.98;100.00;100422.13;5214286;28;20026;-74
2021/11/29 03:40:24;;;;;;;3.20;1.23;;;;;;;2.01;100.00;100425.38;5211803;28;20032;-70
2021/11/29 03:42:55;;;;;;;3.97;1.25;;;;;;;1.96;100.00;100422.19;5213212;28;20062;-71
2021/11/29 03:45:27;;;;;;;2.78;1.15;;;;;;;1.91;100.00;100419.06;5213904;28;20108;-71
2021/11/29 03:47:59;;;;;;;2.35;1.45;;;;;;;1.91;100.00;100413.88;5212011;28;20037;-70
2021/11/29 03:50:30;;;;;;;3.90;1.85;;;;;;;1.93;100.00;100418.06;5214074;28;20068;-71
2021/11/29 03:53:02;;;;;;;3.22;1.40;;;;;;;1.92;100.00;100415.53;5213989;28;20072;-70
2021/11/29 03:55:34;;;;;;;2.25;1.30;;;;;;;1.92;100.00;100423.28;5214573;28;20028;-71
2021/11/29 03:58:06;;;;;;;1.83;1.15;;;;;;;1.91;100.00;100421.63;5214515;28;20426;-70
2021/11/29 04:00:37;;;;;;;2.30;1.30;;;;;;;1.94;100.00;100424.06;5214306;28;20037;-71
2021/11/29 04:03:09;;;;;;;4.07;1.38;;;;;;;1.93;100.00;100412.88;5213554;28;20029;-70
2021/11/29 04:05:40;;;;;;;2.05;1.40;;;;;;;1.94;100.00;100413.72;5214657;28;20033;-70
2021/11/29 04:08:12;;;;;;;1.95;1.27;;;;;;;1.96;100.00;100414.44;5213871;28;20029;-71
2021/11/29 04:10:44;;;;;;;3.10;1.33;;;;;;;1.94;100.00;100424.88;5214552;28;20041;-70
2021/11/29 04:13:15;;;;;;;3.65;1.40;;;;;;;1.99;100.00;100434.13;5213179;28;20022;-72
2021/11/29 04:15:46;;;;;;;2.78;1.50;;;;;;;1.98;100.00;100441.03;5212834;28;20026;-71
2021/11/29 04:18:17;;;;;;;1.77;1.20;;;;;;;2.03;100.00;100451.13;5214247;28;20120;-70
2021/11/29 04:20:49;;;;;;;4.25;1.30;;;;;;;2.02;100.00;100450.28;5214626;28;20030;-71
2021/11/29 04:23:20;;;;;;;3.70;1.33;;;;;;;2.02;100.00;100450.28;5213143;28;20072;-71
2021/11/29 04:26:00;;;;;;;3.58;1.52;;;;;;;2.04;100.00;100458.78;5213742;28;20042;-71
2021/11/29 04:28:32;;;;;;;2.08;1.20;;;;;;;2.05;100.00;100463.03;5214208;28;20033;-71
2021/11/29 04:31:03;;;;;;;2.90;1.60;;;;;;;2.06;100.00;100466.44;5213414;28;20465;-71
2021/11/29 04:33:35;;;;;;;2.95;1.50;;;;;;;2.09;100.00;100469.69;5211570;28;20064;-71
2021/11/29 04:36:06;;;;;;;2.28;1.35;;;;;;;2.06;100.00;100466.44;5212275;28;20030;-70
2021/11/29 04:38:38;;;;;;;2.22;1.30;;;;;;;2.08;100.00;100485.28;5213773;28;20045;-72
2021/11/29 04:41:09;;;;;;;2.67;1.20;;;;;;;2.06;100.00;100479.38;5212601;28;20049;-71
2021/11/29 04:43:40;;;;;;;3.80;1.85;;;;;;;2.05;100.00;100475.97;5213761;28;20041;-70
2021/11/29 04:46:12;;;;;;;4.22;1.58;;;;;;;2.08;100.00;100477.53;5213780;28;20509;-72
2021/11/29 04:48:43;;;;;;;1.98;1.35;;;;;;;2.03;100.00;100480.38;5212960;28;20033;-73
2021/11/29 04:51:14;;;;;;;2.33;1.60;;;;;;;2.06;100.00;100480.19;5213001;28;20124;-71
2021/11/29 04:53:46;;;;;;;4.38;1.70;;;;;;;2.08;100.00;100495.59;5213697;28;20129;-73
2021/11/29 04:56:17;;;;;;;2.97;1.77;;;;;;;2.11;100.00;100501.44;5213653;28;20402;-71
2021/11/29 04:58:49;;;;;;;4.07;1.73;;;;;;;2.09;100.00;100503.28;5212575;28;20467;-70
2021/11/29 05:01:20;;;;;;;3.85;1.77;;;;;;;2.14;100.00;100498.69;5210234;28;20041;-71
2021/11/29 05:03:52;;;;;;;1.90;1.60;;;;;;;2.13;100.00;100496.22;5211612;28;20050;-70
2021/11/29 05:06:23;;;;;;;3.13;1.77;;;;;;;2.17;100.00;100503.69;5211820;28;20049;-70
2021/11/29 05:08:55;;;;;;;2.58;1.52;;;;;;;2.19;100.00;100507.00;5212160;28;20112;-70
2021/11/29 05:11:26;;;;;;;2.88;1.63;;;;;;;2.23;100.00;100532.69;5212399;28;20030;-71
2021/11/29 05:13:57;;;;;;;4.95;2.22;;;;;;;2.28;100.00;100521.22;5211895;28;20041;-71
2021/11/29 05:16:30;;;;;;;3.55;1.52;;;;;;;2.25;100.00;100508.44;5213514;28;20038;-71
2021/11/29 05:19:01;;;;;;;2.35;1.45;;;;;;;2.28;100.00;100505.69;5212453;28;20041;-71
2021/11/29 05:21:33;;;;;;;3.83;1.23;;;;;;;2.25;100.00;100515.38;5212776;28;20036;-70
2021/11/29 05:24:05;;;;;;;2.70;1.58;;;;;;;2.24;100.00;100527.47;5210920;28;20049;-70
2021/11/29 05:26:36;;;;;;;2.85;1.63;;;;;;;2.25;100.00;100530.88;5212206;28;20025;-69
2021/11/29 05:29:08;;;;;;;1.70;1.20;;;;;;;2.26;100.00;100532.53;5213407;28;20088;-70
2021/11/29 05:31:39;;;;;;;5.60;1.30;;;;;;;2.25;100.00;100530.88;5210615;28;20505;-71
2021/11/29 05:34:13;;;;;;;2.85;1.30;;;;;;;2.28;100.00;100530.72;5212521;28;20144;-71
2021/11/29 05:36:45;;;;;;;4.40;1.50;;;;;;;2.31;100.00;100535.69;5211797;28;20022;-70
2021/11/29 05:39:17;;;;;;;2.15;1.20;;;;;;;2.32;100.00;100527.03;5212356;28;20044;-70
2021/11/29 05:41:48;;;;;;;5.40;2.00;;;;;;;2.32;100.00;100540.78;5212828;28;20479;-70
2021/11/29 05:44:20;;;;;;;2.45;1.50;;;;;;;2.31;100.00;100546.88;5212735;28;20120;-71
2021/11/29 05:46:51;;;;;;;4.57;1.52;;;;;;;2.35;100.00;100555.28;5212275;28;20030;-70
2021/11/29 05:49:22;;;;;;;1.85;1.20;;;;;;;2.33;100.00;100555.38;5213245;28;20026;-70
2021/11/29 05:51:55;;;;;;;2.33;1.38;;;;;;;2.36;100.00;100549.22;5211620;28;20088;-71
2021/11/29 05:54:27;;;;;;;2.50;1.05;;;;;;;2.36;100.00;100556.97;5212735;28;20430;-72
2021/11/29 05:56:58;;;;;;;3.58;1.35;;;;;;;2.30;100.00;100558.13;5212803;28;20026;-71
2021/11/29 05:59:30;;;;;;;4.07;1.50;;;;;;;2.31;100.00;100557.22;5212454;28;20022;-70
2021/11/29 06:02:01;;;;;;;5.47;1.35;;;;;;;2.27;100.00;100560.88;5211650;28;20030;-70
2021/11/29 06:04:32;;;;;;;3.10;1.25;;;;;;;2.23;100.00;100553.38;5212530;28;20048;-70
2021/11/29 06:07:04;;;;;;;3.05;1.40;;;;;;;2.22;100.00;100557.72;5212623;28;20044;-71
2021/11/29 06:09:35;;;;;;;2.33;1.30;;;;;;;2.18;100.00;100546.72;5211231;28;20033;-73
2021/11/29 06:12:07;;;;;;;3.58;1.55;;;;;;;2.14;100.00;100550.38;5212405;28;20018;-70
2021/11/29 06:14:38;;;;;;;3.05;1.40;;;;;;;2.13;100.00;100551.31;5211244;28;20418;-70
2021/11/29 06:17:09;;;;;;;3.20;1.13;;;;;;;2.12;100.00;100564.28;5211843;28;20017;-71
2021/11/29 06:19:41;;;;;;;2.90;1.58;;;;;;;2.11;100.00;100553.13;5212488;28;20034;-73
2021/11/29 06:22:12;;;;;;;2.50;1.45;;;;;;;2.09;100.00;100565.31;5211574;28;20025;-71
2021/11/29 06:24:43;;;;;;;3.70;1.58;;;;;;;2.09;100.00;100561.91;5210894;28;20038;-70
2021/11/29 06:27:15;;;;;;;2.60;1.30;;;;;;;2.05;100.00;100563.81;5212813;28;20192;-69
2021/11/29 06:29:46;;;;;;;2.63;1.48;;;;;;;2.11;100.00;100567.81;5212185;28;20021;-70
2021/11/29 06:32:18;;;;;;;2.97;1.60;;;;;;;2.08;100.00;100571.38;5212415;28;20152;-70
2021/11/29 06:34:49;;;;;;;4.75;1.40;;;;;;;2.05;100.00;100563.81;5210678;28;20483;-72
2021/11/29 06:37:24;;;;;;;2.85;1.50;;;;;;;2.05;100.00;100570.72;5212115;28;20367;-70
2021/11/29 06:39:58;;;;;;;3.00;1.50;;;;;;;2.10;100.00;100568.72;5211389;28;20053;-70
2021/11/29 06:42:30;;;;;;;3.45;1.67;;;;;;;2.04;100.00;100572.47;5210448;28;20031;-70
2021/11/29 06:45:02;;;;;;;3.20;1.70;;;;;;;2.02;100.00;100568.31;5211818;28;20431;-70
2021/11/29 06:47:33;;;;;;;3.20;1.73;;;;;;;2.03;100.00;100582.88;5212208;28;20497;-70
2021/11/29 06:50:05;;;;;;;4.80;2.28;;;;;;;2.02;100.00;100574.31;5212535;28;20030;-71
2021/11/29 06:52:36;;;;;;;3.72;1.85;;;;;;;1.99;100.00;100578.81;5210934;28;20057;-70
2021/11/29 06:55:12;;;;;;;3.78;1.63;;;;;;;2.03;100.00;100577.72;5213026;28;20030;-70
2021/11/29 06:57:43;;;;;;;4.15;1.77;;;;;;;2.03;100.00;100588.88;5215144;28;20763;-73
2021/11/29 07:00:20;;;;;;;4.07;2.15;;;;;;;2.04;100.00;100582.78;5214599;28;20038;-70
2021/11/29 07:02:53;;;;;;;4.53;2.20;;;;;;;2.00;100.00;100596.78;5211734;28;20034;-71
2021/11/29 07:05:27;;;;;;;5.00;2.17;;;;;;;2.04;100.00;100589.72;5214164;28;20077;-69
2021/11/29 07:07:58;;;;;;;4.15;2.20;;;;;;;2.04;100.00;100603.47;5214583;28;20060;-69
2021/11/29 07:10:29;;;;;;;4.55;2.28;;;;;;;2.05;100.00;100615.50;5211785;28;20112;-69
2021/11/29 07:13:01;;;;;;;4.22;2.55;;;;;;;2.05;100.00;100619.81;5215010;28;20045;-73
2021/11/29 07:15:33;;;;;;;6.93;2.80;;;;;;;2.07;100.00;100623.16;5211915;28;20034;-70
2021/11/29 07:18:04;;;;;;;5.07;2.50;;;;;;;2.03;100.00;100617.31;5213101;28;20034;-71
2021/11/29 07:20:36;;;;;;;6.20;2.53;;;;;;;2.10;100.00;100615.25;5213112;28;20513;-70
2021/11/29 07:23:07;;;;;;;3.67;2.53;;;;;;;2.09;100.00;100618.75;5213345;28;20042;-70
2021/11/29 07:25:38;;;;;;;3.53;2.78;;;;;;;2.10;100.00;100626.41;5212009;28;20048;-71
2021/11/29 07:28:10;;;;;;;4.22;2.63;;;;;;;2.12;100.00;100624.59;5213998;28;20022;-70
2021/11/29 07:30:41;;;;;;;4.00;2.70;;;;;;;2.12;100.00;100616.84;5212560;28;20467;-69
2021/11/29 07:33:12;;;;;;;5.70;2.92;;;;;;;2.09;100.00;100622.16;5213129;28;20441;-70
2021/11/29 07:35:44;;;;;;;3.92;2.78;;;;;;;2.12;100.00;100624.59;5204590;28;20076;-70
2021/11/29 07:38:15;;;;;;;5.00;2.78;;;;;;;2.13;100.00;100622.84;5212932;28;20073;-71
2021/11/29 07:40:46;;;;;;;5.85;2.72;;;;;;;2.14;100.00;100625.31;5213152;28;20034;-71
2021/11/29 07:43:18;;;;;;;4.82;3.35;;;;;;;2.11;100.00;100625.47;5211635;28;20483;-70
2021/11/29 07:45:49;;;;;;;7.20;3.20;;;;;;;2.12;100.00;100632.34;5213811;28;20446;-71
2021/11/29 07:48:22;;;;;;;4.10;3.20;;;;;;;2.15;100.00;100636.50;5206877;28;20045;-70
2021/11/29 07:50:54;;;;;;;5.50;3.63;;;;;;;2.10;100.00;100631.56;5209904;28;20252;-72
2021/11/29 07:53:25;;;;;;;5.07;3.60;;;;;;;2.18;100.00;100642.34;5206075;28;20303;-73
2021/11/29 07:55:57;;;;;;;5.05;3.72;;;;;;;2.24;100.00;100648.13;5203076;28;20076;-70
2021/11/29 07:58:28;;;;;;;5.65;3.70;;;;;;;2.31;100.00;100645.13;5213735;28;20049;-71
2021/11/29 08:00:59;;;;;;;5.10;4.03;;;;;;;2.32;100.00;100645.94;5211333;28;20026;-70
2021/11/29 08:03:31;;;;;;;6.88;3.90;;;;;;;2.38;100.00;100649.00;5210961;28;20025;-70
2021/11/29 08:06:02;;;;;;;6.70;3.90;;;;;;;2.42;100.00;100657.44;5213289;28;20021;-70
2021/11/29 08:08:34;;;;;;;4.30;3.55;;;;;;;2.51;100.00;100661.31;5202930;28;20141;-70
2021/11/29 08:11:05;;;;;;;9.23;3.88;;;;;;;2.57;100.00;100651.44;5210141;28;20112;-71
2021/11/29 08:13:37;;;;;;;5.75;3.45;;;;;;;2.60;100.00;100648.69;5209681;28;20523;-73
2021/11/29 08:16:08;;;;;;;5.43;3.03;;;;;;;2.72;100.00;100660.13;5212163;28;20026;-72
2021/11/29 08:18:40;;;;;;;6.40;3.28;;;;;;;2.75;100.00;100651.34;5211392;28;20022;-70
2021/11/29 08:21:11;;;;;;;6.85;3.90;;;;;;;2.76;100.00;100656.44;5210570;28;20032;-71
2021/11/29 08:23:42;;;;;;;9.10;3.60;;;;;;;2.81;100.00;100661.38;5211285;28;20054;-70
2021/11/29 08:26:13;;;;;;;6.63;3.42;;;;;;;2.86;100.00;100665.38;5212200;28;20030;-73
2021/11/29 08:28:45;;;;;;;8.27;3.50;;;;;;;2.88;100.00;100660.13;5213054;28;20065;-71
2021/11/29 08:31:16;;;;;;;9.02;3.55;;;;;;;2.89;100.00;100667.78;5208138;28;20124;-72
2021/11/29 08:33:48;;;;;;;7.35;3.63;;;;;;;2.94;100.00;100670.13;5209706;28;20030;-72
2021/11/29 08:36:19;;;;;;;6.53;3.38;;;;;;;2.99;100.00;100662.91;5209444;28;21093;-71
2021/11/29 08:38:51;;;;;;;8.77;3.47;;;;;;;3.03;100.00;100668.75;5209027;28;20104;-71
2021/11/29 08:41:22;;;;;;;6.97;3.30;;;;;;;3.05;100.00;100683.28;5211151;28;20087;-71
2021/11/29 08:43:53;;;;;;;7.03;3.20;;;;;;;3.08;100.00;100682.28;5210471;28;20034;-71
2021/11/29 08:46:25;;;;;;;5.90;3.15;;;;;;;3.15;100.00;100693.97;5211277;28;20397;-71
2021/11/29 08:48:56;;;;;;;7.07;3.35;;;;;;;3.19;100.00;100689.47;5210220;28;20029;-71
2021/11/29 08:51:28;;;;;;;8.95;3.28;;;;;;;3.19;100.00;100695.47;5211034;28;20018;-70
2021/11/29 08:53:59;;;;;;;6.15;2.97;;;;;;;3.23;100.00;100703.91;5208352;28;20442;-73
2021/11/29 08:56:30;;;;;;;8.23;2.85;;;;;;;3.28;100.00;100705.28;5210491;28;20028;-72
2021/11/29 08:59:02;;;;;;;7.00;3.22;;;;;;;3.31;100.00;100705.13;5208493;28;20036;-71
2021/11/29 09:01:34;;;;;;;6.15;2.95;;;;;;;3.36;100.00;100707.44;5208335;28;20032;-72
2021/11/29 09:04:06;;;;;;;11.33;3.33;;;;;;;3.40;100.00;100707.16;5209345;28;20033;-72
2021/11/29 09:06:38;;;;;;;5.93;2.80;;;;;;;3.40;100.00;100714.09;5210176;28;20041;-73
2021/11/29 09:09:11;;;;;;;9.23;3.63;;;;;;;3.41;100.00;100720.97;5211550;28;20694;-72
2021/11/29 09:11:42;;;;;;;7.78;3.30;;;;;;;3.46;100.00;100707.75;5210999;28;20030;-71
2021/11/29 09:14:14;;;;;;;7.53;2.78;;;;;;;3.48;100.00;100708.50;5211728;28;20084;-71
2021/11/29 09:16:45;;;;;;;6.97;2.78;;;;;;;3.51;100.00;100714.34;5209409;28;20443;-71
2021/11/29 09:19:16;;;;;;;9.18;2.97;;;;;;;3.52;100.00;100721.16;5210916;28;20030;-70
2021/11/29 09:21:48;;;;;;;11.85;3.03;;;;;;;3.60;100.00;100723.34;5211283;28;20037;-73
2021/11/29 09:24:19;;;;;;;6.93;3.30;;;;;;;3.61;100.00;100731.03;5211297;28;20135;-71
2021/11/29 09:26:51;;;;;;;8.57;3.55;;;;;;;3.70;100.00;100734.00;5210813;28;20041;-71
2021/11/29 09:29:22;;;;;;;9.52;3.20;;;;;;;3.78;100.00;100742.16;5216708;28;20025;-72
2021/11/29 09:31:55;;;;;;;11.73;3.78;;;;;;;3.85;100.00;100743.47;5210869;28;20029;-71
2021/11/29 09:34:29;;;;;;;9.18;2.97;;;;;;;3.99;100.00;100738.31;5211232;28;20041;-71
2021/11/29 09:37:01;;;;;;;8.70;3.67;;;;;;;3.94;100.00;100739.50;5211482;28;20034;-70
2021/11/29 09:39:32;;;;;;;11.23;3.10;;;;;;;3.94;100.00;100745.53;5212310;28;20061;-70
2021/11/29 09:42:06;;;;;;;8.88;3.15;;;;;;;3.97;100.00;100755.72;5210575;28;20483;-70
2021/11/29 09:44:37;;;;;;;7.47;2.97;;;;;;;4.00;100.00;100750.34;5210952;28;20049;-70
2021/11/29 09:47:10;;;;;;;7.78;2.88;;;;;;;4.03;100.00;100750.19;5210837;28;20495;-70
2021/11/29 09:49:42;;;;;;;11.20;2.95;;;;;;;4.08;100.00;100758.50;5211510;28;20088;-70
2021/11/29 09:52:13;;;;;;;9.10;3.30;;;;;;;4.11;100.00;100753.16;5209066;28;20029;-70
2021/11/29 09:54:45;;;;;;;9.55;3.60;;;;;;;4.10;100.00;100754.06;5208287;28;20033;-70
2021/11/29 09:57:18;;;;;;;9.23;3.15;;;;;;;4.12;100.00;100756.56;5211289;28;20075;-70
2021/11/29 09:59:52;;;;;;;5.25;2.95;;;;;;;4.13;100.00;100758.25;5203746;28;20030;-70
2021/11/29 10:02:24;;;;;;;8.50;3.05;;;;;;;4.14;100.00;100760.75;5211765;28;20057;-70
2021/11/29 10:04:55;;;;;;;8.60;3.13;;;;;;;4.18;100.00;100760.56;5207537;28;21483;-70
2021/11/29 10:07:36;;;;;;;6.97;3.22;;;;;;;4.25;100.00;100759.28;5210518;28;20036;-70
2021/11/29 10:10:10;;;;;;;8.10;3.13;;;;;;;4.25;100.00;100767.88;5209770;28;20057;-70
2021/11/29 10:12:42;;;;;;;7.88;2.80;;;;;;;4.22;100.00;100775.03;5209207;28;20037;-70
2021/11/29 10:15:23;;;;;;;7.93;2.85;;;;;;;4.30;100.00;100758.06;5210632;28;20057;-70
2021/11/29 10:18:06;;;;;;;5.15;2.50;;;;;;;4.34;100.00;100762.13;5209425;28;20095;-70
2021/11/29 10:20:53;;;;;;;8.48;3.17;;;;;;;4.45;100.00;100764.09;5204142;28;20032;-70
2021/11/29 10:23:27;;;;;;;10.05;2.90;;;;;;;4.32;100.00;100766.59;5210240;28;20050;-70
2021/11/29 10:26:00;;;;;;;12.10;3.22;;;;;;;4.39;100.00;100772.22;5210105;28;20044;-70
2021/11/29 10:28:42;;;;;;;8.57;3.03;;;;;;;4.43;100.00;100776.31;5208315;28;20475;-70
2021/11/29 10:31:20;;;;;;;7.85;2.92;;;;;;;4.46;100.00;100773.53;5212636;28;20067;-70
2021/11/29 10:34:06;;;;;;;8.20;2.85;;;;;;;4.62;100.00;100783.81;5215303;28;20034;-70
2021/11/29 10:36:50;;;;;;;12.90;3.33;;;;;;;4.62;100.00;100779.47;5215059;28;20394;-70
2021/11/29 10:39:25;;;;;;;9.15;2.95;;;;;;;4.57;100.00;100785.88;5210991;28;20025;-70
2021/11/29 10:42:02;;;;;;;11.38;3.67;;;;;;;4.61;100.00;100782.97;5209822;28;20033;-70
2021/11/29 10:44:36;;;;;;;8.60;3.28;;;;;;;4.62;100.00;100779.47;5211501;28;20499;-70
2021/11/29 10:47:13;;;;;;;7.20;3.00;;;;;;;4.71;100.00;100782.44;5213244;28;20030;-70
2021/11/29 10:49:48;;;;;;;9.73;3.78;;;;;;;4.76;100.00;100793.38;5214218;28;20030;-70
2021/11/29 10:52:23;;;;;;;10.13;3.05;;;;;;;4.83;100.00;100790.28;5214908;28;20088;-70
2021/11/29 10:54:56;;;;;;;11.90;3.03;;;;;;;4.82;100.00;100793.81;5215555;28;20104;-70
2021/11/29 10:57:28;;;;;;;9.57;3.00;;;;;;;4.88;100.00;100784.81;5214772;28;20472;-70
2021/11/29 11:00:06;;;;;;;8.98;2.92;;;;;;;5.03;100.00;100793.41;5216164;28;20041;-70
2021/11/29 11:02:37;;;;;;;7.72;2.75;;;;;;;4.99;100.00;100797.97;5214007;28;20372;-70
2021/11/29 11:05:12;;;;;;;10.40;3.60;;;;;;;5.03;100.00;100793.41;5215246;28;20038;-70
2021/11/29 11:07:45;;;;;;;8.13;3.63;;;;;;;5.02;100.00;100796.94;5214808;28;20057;-70
2021/11/29 11:10:17;;;;;;;8.98;2.92;;;;;;;5.04;100.00;100798.53;5212725;28;20653;-70
2021/11/29 11:12:58;;;;;;;9.52;3.40;;;;;;;5.22;100.00;100804.31;5214220;28;20026;-70
2021/11/29 11:15:31;;;;;;;12.20;3.30;;;;;;;5.16;100.00;100803.88;5209636;28;20040;-70
2021/11/29 11:18:03;;;;;;;9.05;3.15;;;;;;;5.24;100.00;100794.66;5213640;28;20096;-70
2021/11/29 11:20:34;;;;;;;9.50;2.80;;;;;;;5.29;100.00;100799.56;5213178;28;20034;-70
2021/11/29 11:23:05;;;;;;;9.38;2.97;;;;;;;5.33;100.00;100799.28;5214248;28;20056;-70
2021/11/29 11:25:42;;;;;;;11.88;2.85;;;;;;;5.40;100.00;100804.91;5214575;28;20041;-70
2021/11/29 11:28:14;;;;;;;11.98;2.15;;;;;;;5.45;100.00;100805.44;5212403;28;20029;-70
2021/11/29 11:30:45;;;;;;;11.23;2.40;;;;;;;5.51;100.00;100805.06;5212169;28;20601;-70
2021/11/29 11:33:20;;;;;;;10.85;2.67;;;;;;;5.56;100.00;100805.59;5215001;28;20069;-70
2021/11/29 11:35:53;;;;;;;5.55;2.03;;;;;;;5.47;100.00;100803.59;5212664;28;20470;-71
2021/11/29 11:38:26;;;;;;;8.57;1.88;;;;;;;5.54;100.00;100807.47;5203815;28;20061;-71
2021/11/29 11:40:58;;;;;;;7.72;1.95;;;;;;;5.51;100.00;100815.47;5207507;28;20053;-71
2021/11/29 11:43:30;;;;;;;9.15;2.10;;;;;;;5.47;100.00;100806.19;5213828;28;20040;-71
2021/11/29 11:46:01;;;;;;;4.82;1.60;;;;;;;5.51;100.00;100818.06;5213530;28;20030;-71
2021/11/29 11:48:33;;;;;;;7.20;1.95;;;;;;;5.57;100.00;100812.47;5211487;28;20103;-71